Terminal Aerodrome Forecast
Issued by NWS Wilmington, OH

Home | Current Version | Previous Version | Text Only | Print | Product List | Glossary On
Versions: 1 2 3 4 5 6 7 8 9 10 11 12 13 14 15 16 17 18 19 20 21 22 23 24
000
FTUS41 KILN 242300
TAFCVG
TAF
KCVG 242336Z 2500/2606 12012KT P6SM SCT130 OVC250
     FM250700 15011KT 5SM -SHRA OVC050
     FM251000 18010KT P6SM VCSH OVC025
     FM251300 22010KT 3SM -SHRA VCTS BKN012 OVC022CB
     FM251700 31017G27KT P6SM BKN015 OVC040
     FM252100 30016G26KT P6SM SCT040
     FM260100 25005KT P6SM FEW040=

USA.gov is the U.S. government's official web portal to all federal, state and local government web resources and services.